sensor_id;sensor_type;location;lat;lon;timestamp;P1;durP1;ratioP1;P2;durP2;ratioP2
21806;SDS011;11065;50.786;7.840;2023-05-19T00:00:58;2.50;;;0.90;;
21806;SDS011;11065;50.786;7.840;2023-05-19T00:03:27;2.57;;;1.13;;
21806;SDS011;11065;50.786;7.840;2023-05-19T00:05:56;3.50;;;1.10;;
21806;SDS011;11065;50.786;7.840;2023-05-19T00:08:26;5.20;;;0.97;;
21806;SDS011;11065;50.786;7.840;2023-05-19T00:10:58;5.03;;;1.27;;
21806;SDS011;11065;50.786;7.840;2023-05-19T00:13:27;1.90;;;0.80;;
21806;SDS011;11065;50.786;7.840;2023-05-19T00:15:57;2.30;;;0.97;;
21806;SDS011;11065;50.786;7.840;2023-05-19T00:18:25;1.87;;;0.90;;
21806;SDS011;11065;50.786;7.840;2023-05-19T00:20:55;2.40;;;0.97;;
21806;SDS011;11065;50.786;7.840;2023-05-19T00:23:23;1.60;;;0.87;;
21806;SDS011;11065;50.786;7.840;2023-05-19T00:25:51;1.53;;;0.87;;
21806;SDS011;11065;50.786;7.840;2023-05-19T00:28:19;2.33;;;0.93;;
21806;SDS011;11065;50.786;7.840;2023-05-19T00:30:49;3.80;;;1.00;;
21806;SDS011;11065;50.786;7.840;2023-05-19T00:33:17;4.73;;;1.00;;
21806;SDS011;11065;50.786;7.840;2023-05-19T00:35:45;3.27;;;1.00;;
21806;SDS011;11065;50.786;7.840;2023-05-19T00:38:13;3.33;;;0.80;;
21806;SDS011;11065;50.786;7.840;2023-05-19T00:40:41;3.57;;;0.93;;
21806;SDS011;11065;50.786;7.840;2023-05-19T00:43:10;2.90;;;0.80;;
21806;SDS011;11065;50.786;7.840;2023-05-19T00:45:38;2.10;;;0.80;;
21806;SDS011;11065;50.786;7.840;2023-05-19T00:48:08;2.37;;;1.00;;
21806;SDS011;11065;50.786;7.840;2023-05-19T00:50:36;3.00;;;1.20;;
21806;SDS011;11065;50.786;7.840;2023-05-19T00:53:05;2.47;;;0.80;;
21806;SDS011;11065;50.786;7.840;2023-05-19T00:55:33;1.87;;;0.80;;
21806;SDS011;11065;50.786;7.840;2023-05-19T00:58:06;2.83;;;0.90;;
21806;SDS011;11065;50.786;7.840;2023-05-19T01:00:35;3.03;;;0.90;;
21806;SDS011;11065;50.786;7.840;2023-05-19T01:03:04;2.57;;;1.00;;
21806;SDS011;11065;50.786;7.840;2023-05-19T01:05:39;3.37;;;1.07;;
21806;SDS011;11065;50.786;7.840;2023-05-19T01:08:10;2.30;;;0.90;;
21806;SDS011;11065;50.786;7.840;2023-05-19T01:10:38;2.00;;;0.73;;
21806;SDS011;11065;50.786;7.840;2023-05-19T01:13:06;3.40;;;1.13;;
21806;SDS011;11065;50.786;7.840;2023-05-19T01:15:37;2.83;;;0.97;;
21806;SDS011;11065;50.786;7.840;2023-05-19T01:18:15;2.57;;;1.10;;
21806;SDS011;11065;50.786;7.840;2023-05-19T01:20:53;2.60;;;1.17;;
21806;SDS011;11065;50.786;7.840;2023-05-19T01:23:32;2.83;;;1.00;;
21806;SDS011;11065;50.786;7.840;2023-05-19T01:29:12;2.63;;;1.10;;
21806;SDS011;11065;50.786;7.840;2023-05-19T01:31:56;1.77;;;1.00;;
21806;SDS011;11065;50.786;7.840;2023-05-19T01:34:26;4.33;;;0.80;;
21806;SDS011;11065;50.786;7.840;2023-05-19T01:36:56;2.70;;;1.00;;
21806;SDS011;11065;50.786;7.840;2023-05-19T01:39:25;2.90;;;0.90;;
21806;SDS011;11065;50.786;7.840;2023-05-19T01:41:56;2.90;;;0.90;;
21806;SDS011;11065;50.786;7.840;2023-05-19T01:44:26;2.50;;;0.70;;
21806;SDS011;11065;50.786;7.840;2023-05-19T01:46:56;1.80;;;0.80;;
21806;SDS011;11065;50.786;7.840;2023-05-19T01:49:25;2.83;;;0.90;;
21806;SDS011;11065;50.786;7.840;2023-05-19T01:51:53;2.47;;;0.90;;
21806;SDS011;11065;50.786;7.840;2023-05-19T01:54:22;2.60;;;0.80;;
21806;SDS011;11065;50.786;7.840;2023-05-19T01:56:51;2.43;;;1.03;;
21806;SDS011;11065;50.786;7.840;2023-05-19T01:59:30;3.20;;;1.00;;
21806;SDS011;11065;50.786;7.840;2023-05-19T02:02:12;2.40;;;0.90;;
21806;SDS011;11065;50.786;7.840;2023-05-19T02:04:49;4.27;;;0.93;;
21806;SDS011;11065;50.786;7.840;2023-05-19T02:07:24;2.00;;;0.70;;
21806;SDS011;11065;50.786;7.840;2023-05-19T02:10:03;1.30;;;0.77;;
21806;SDS011;11065;50.786;7.840;2023-05-19T02:12:33;3.47;;;0.80;;
21806;SDS011;11065;50.786;7.840;2023-05-19T02:15:05;2.80;;;0.90;;
21806;SDS011;11065;50.786;7.840;2023-05-19T02:17:39;3.27;;;1.00;;
21806;SDS011;11065;50.786;7.840;2023-05-19T02:20:13;3.13;;;0.90;;
21806;SDS011;11065;50.786;7.840;2023-05-19T02:22:41;3.53;;;0.87;;
21806;SDS011;11065;50.786;7.840;2023-05-19T02:25:11;2.17;;;0.80;;
21806;SDS011;11065;50.786;7.840;2023-05-19T02:27:40;1.10;;;0.57;;
21806;SDS011;11065;50.786;7.840;2023-05-19T02:30:09;3.30;;;0.90;;
21806;SDS011;11065;50.786;7.840;2023-05-19T02:32:38;2.57;;;0.80;;
21806;SDS011;11065;50.786;7.840;2023-05-19T02:35:08;3.30;;;0.93;;
21806;SDS011;11065;50.786;7.840;2023-05-19T02:37:36;2.67;;;0.97;;
21806;SDS011;11065;50.786;7.840;2023-05-19T02:40:05;1.70;;;0.90;;
21806;SDS011;11065;50.786;7.840;2023-05-19T02:42:53;2.00;;;1.10;;
21806;SDS011;11065;50.786;7.840;2023-05-19T02:45:21;3.47;;;1.00;;
21806;SDS011;11065;50.786;7.840;2023-05-19T02:47:51;2.07;;;0.90;;
21806;SDS011;11065;50.786;7.840;2023-05-19T02:50:20;2.50;;;0.77;;
21806;SDS011;11065;50.786;7.840;2023-05-19T02:52:48;1.93;;;0.80;;
21806;SDS011;11065;50.786;7.840;2023-05-19T02:55:18;2.47;;;1.13;;
21806;SDS011;11065;50.786;7.840;2023-05-19T02:57:46;2.60;;;0.73;;
21806;SDS011;11065;50.786;7.840;2023-05-19T03:00:14;2.30;;;0.90;;
21806;SDS011;11065;50.786;7.840;2023-05-19T03:02:43;2.33;;;0.80;;
21806;SDS011;11065;50.786;7.840;2023-05-19T03:05:12;2.77;;;0.90;;
21806;SDS011;11065;50.786;7.840;2023-05-19T03:07:41;1.90;;;0.83;;
21806;SDS011;11065;50.786;7.840;2023-05-19T03:10:09;2.43;;;0.70;;
21806;SDS011;11065;50.786;7.840;2023-05-19T03:12:37;1.77;;;0.87;;
21806;SDS011;11065;50.786;7.840;2023-05-19T03:15:05;2.03;;;0.90;;
21806;SDS011;11065;50.786;7.840;2023-05-19T03:17:34;3.63;;;1.00;;
21806;SDS011;11065;50.786;7.840;2023-05-19T03:20:02;1.90;;;0.73;;
21806;SDS011;11065;50.786;7.840;2023-05-19T03:22:32;1.63;;;0.80;;
21806;SDS011;11065;50.786;7.840;2023-05-19T03:25:01;3.53;;;0.93;;
21806;SDS011;11065;50.786;7.840;2023-05-19T03:27:30;2.67;;;1.00;;
21806;SDS011;11065;50.786;7.840;2023-05-19T03:29:58;1.50;;;0.90;;
21806;SDS011;11065;50.786;7.840;2023-05-19T03:32:29;1.90;;;1.00;;
21806;SDS011;11065;50.786;7.840;2023-05-19T03:34:58;2.13;;;1.07;;
21806;SDS011;11065;50.786;7.840;2023-05-19T03:37:26;6.63;;;1.30;;
21806;SDS011;11065;50.786;7.840;2023-05-19T03:39:55;3.17;;;1.07;;
21806;SDS011;11065;50.786;7.840;2023-05-19T03:42:24;2.50;;;1.10;;
21806;SDS011;11065;50.786;7.840;2023-05-19T03:44:52;2.20;;;1.10;;
21806;SDS011;11065;50.786;7.840;2023-05-19T03:47:20;2.43;;;1.00;;
21806;SDS011;11065;50.786;7.840;2023-05-19T03:50:05;4.60;;;1.00;;
21806;SDS011;11065;50.786;7.840;2023-05-19T03:52:47;1.70;;;0.83;;
21806;SDS011;11065;50.786;7.840;2023-05-19T03:55:31;2.10;;;0.73;;
21806;SDS011;11065;50.786;7.840;2023-05-19T03:58:00;2.57;;;0.93;;
21806;SDS011;11065;50.786;7.840;2023-05-19T04:00:28;3.07;;;1.10;;
21806;SDS011;11065;50.786;7.840;2023-05-19T04:02:56;2.57;;;1.13;;
21806;SDS011;11065;50.786;7.840;2023-05-19T04:05:25;1.77;;;1.00;;
21806;SDS011;11065;50.786;7.840;2023-05-19T04:07:53;2.30;;;0.90;;
21806;SDS011;11065;50.786;7.840;2023-05-19T04:10:22;3.13;;;1.00;;
21806;SDS011;11065;50.786;7.840;2023-05-19T04:12:51;3.83;;;1.10;;
21806;SDS011;11065;50.786;7.840;2023-05-19T04:15:19;3.10;;;1.10;;
21806;SDS011;11065;50.786;7.840;2023-05-19T04:17:49;1.93;;;0.83;;
21806;SDS011;11065;50.786;7.840;2023-05-19T04:20:17;1.80;;;1.00;;
21806;SDS011;11065;50.786;7.840;2023-05-19T04:22:45;2.40;;;1.20;;
21806;SDS011;11065;50.786;7.840;2023-05-19T04:25:13;2.00;;;1.07;;
21806;SDS011;11065;50.786;7.840;2023-05-19T04:27:41;1.93;;;1.03;;
21806;SDS011;11065;50.786;7.840;2023-05-19T04:30:11;4.03;;;1.13;;
21806;SDS011;11065;50.786;7.840;2023-05-19T04:32:44;2.43;;;1.30;;
21806;SDS011;11065;50.786;7.840;2023-05-19T04:35:12;1.63;;;1.07;;
21806;SDS011;11065;50.786;7.840;2023-05-19T04:37:42;3.03;;;1.47;;
21806;SDS011;11065;50.786;7.840;2023-05-19T04:40:12;4.60;;;1.30;;
21806;SDS011;11065;50.786;7.840;2023-05-19T04:42:41;4.60;;;1.43;;
21806;SDS011;11065;50.786;7.840;2023-05-19T04:45:13;2.97;;;1.10;;
21806;SDS011;11065;50.786;7.840;2023-05-19T04:47:44;2.87;;;1.70;;
21806;SDS011;11065;50.786;7.840;2023-05-19T04:50:13;3.53;;;1.23;;
21806;SDS011;11065;50.786;7.840;2023-05-19T04:52:42;5.20;;;1.30;;
21806;SDS011;11065;50.786;7.840;2023-05-19T04:55:12;4.53;;;1.60;;
21806;SDS011;11065;50.786;7.840;2023-05-19T04:57:41;3.70;;;1.60;;
21806;SDS011;11065;50.786;7.840;2023-05-19T05:00:10;3.87;;;1.70;;
21806;SDS011;11065;50.786;7.840;2023-05-19T05:02:54;1.90;;;1.17;;
21806;SDS011;11065;50.786;7.840;2023-05-19T05:05:25;5.47;;;1.47;;
21806;SDS011;11065;50.786;7.840;2023-05-19T05:07:53;5.60;;;1.87;;
21806;SDS011;11065;50.786;7.840;2023-05-19T05:10:23;4.83;;;1.53;;
21806;SDS011;11065;50.786;7.840;2023-05-19T05:12:52;3.23;;;1.50;;
21806;SDS011;11065;50.786;7.840;2023-05-19T05:15:21;4.07;;;1.67;;
21806;SDS011;11065;50.786;7.840;2023-05-19T05:17:50;5.83;;;1.90;;
21806;SDS011;11065;50.786;7.840;2023-05-19T05:20:22;2.70;;;1.40;;
21806;SDS011;11065;50.786;7.840;2023-05-19T05:22:50;3.70;;;1.47;;
21806;SDS011;11065;50.786;7.840;2023-05-19T05:25:20;2.97;;;1.30;;
21806;SDS011;11065;50.786;7.840;2023-05-19T05:27:48;5.37;;;1.67;;
21806;SDS011;11065;50.786;7.840;2023-05-19T05:30:17;3.60;;;1.50;;
21806;SDS011;11065;50.786;7.840;2023-05-19T05:32:45;4.33;;;1.40;;
21806;SDS011;11065;50.786;7.840;2023-05-19T05:35:29;4.10;;;1.73;;
21806;SDS011;11065;50.786;7.840;2023-05-19T05:37:57;5.83;;;1.70;;
21806;SDS011;11065;50.786;7.840;2023-05-19T05:40:27;3.70;;;1.40;;
21806;SDS011;11065;50.786;7.840;2023-05-19T05:42:55;3.07;;;1.30;;
21806;SDS011;11065;50.786;7.840;2023-05-19T05:45:27;6.00;;;1.80;;
21806;SDS011;11065;50.786;7.840;2023-05-19T05:47:56;5.03;;;1.70;;
21806;SDS011;11065;50.786;7.840;2023-05-19T05:50:25;3.23;;;1.23;;
21806;SDS011;11065;50.786;7.840;2023-05-19T05:52:55;3.90;;;1.70;;
21806;SDS011;11065;50.786;7.840;2023-05-19T05:55:26;3.53;;;1.50;;
21806;SDS011;11065;50.786;7.840;2023-05-19T05:57:58;3.53;;;1.70;;
21806;SDS011;11065;50.786;7.840;2023-05-19T06:00:27;7.13;;;1.80;;
21806;SDS011;11065;50.786;7.840;2023-05-19T06:02:56;3.77;;;1.50;;
21806;SDS011;11065;50.786;7.840;2023-05-19T06:05:25;4.13;;;1.70;;
21806;SDS011;11065;50.786;7.840;2023-05-19T06:07:53;3.77;;;1.60;;
21806;SDS011;11065;50.786;7.840;2023-05-19T06:10:25;3.67;;;1.60;;
21806;SDS011;11065;50.786;7.840;2023-05-19T06:12:54;3.97;;;1.63;;
21806;SDS011;11065;50.786;7.840;2023-05-19T06:15:23;4.23;;;1.60;;
21806;SDS011;11065;50.786;7.840;2023-05-19T06:17:59;5.30;;;1.70;;
21806;SDS011;11065;50.786;7.840;2023-05-19T06:20:28;4.93;;;1.63;;
21806;SDS011;11065;50.786;7.840;2023-05-19T06:22:58;4.60;;;1.67;;
21806;SDS011;11065;50.786;7.840;2023-05-19T06:25:27;4.00;;;1.70;;
21806;SDS011;11065;50.786;7.840;2023-05-19T06:30:45;4.27;;;1.70;;
21806;SDS011;11065;50.786;7.840;2023-05-19T06:33:23;4.47;;;1.47;;
21806;SDS011;11065;50.786;7.840;2023-05-19T06:35:54;5.70;;;1.60;;
21806;SDS011;11065;50.786;7.840;2023-05-19T06:38:24;4.07;;;1.23;;
21806;SDS011;11065;50.786;7.840;2023-05-19T06:40:53;3.73;;;1.20;;
21806;SDS011;11065;50.786;7.840;2023-05-19T06:43:21;4.57;;;1.50;;
21806;SDS011;11065;50.786;7.840;2023-05-19T06:45:55;2.37;;;1.20;;
21806;SDS011;11065;50.786;7.840;2023-05-19T06:48:24;3.47;;;1.20;;
21806;SDS011;11065;50.786;7.840;2023-05-19T06:50:52;2.70;;;1.03;;
21806;SDS011;11065;50.786;7.840;2023-05-19T06:53:22;3.57;;;1.00;;
21806;SDS011;11065;50.786;7.840;2023-05-19T06:55:52;2.50;;;1.20;;
21806;SDS011;11065;50.786;7.840;2023-05-19T06:58:29;4.30;;;1.03;;
21806;SDS011;11065;50.786;7.840;2023-05-19T07:01:00;6.70;;;1.23;;
21806;SDS011;11065;50.786;7.840;2023-05-19T07:03:33;7.30;;;2.43;;
21806;SDS011;11065;50.786;7.840;2023-05-19T07:06:02;4.10;;;1.37;;
21806;SDS011;11065;50.786;7.840;2023-05-19T07:08:33;3.40;;;1.20;;
21806;SDS011;11065;50.786;7.840;2023-05-19T07:11:05;3.77;;;1.13;;
21806;SDS011;11065;50.786;7.840;2023-05-19T07:13:33;2.80;;;1.00;;
21806;SDS011;11065;50.786;7.840;2023-05-19T07:16:02;3.60;;;1.30;;
21806;SDS011;11065;50.786;7.840;2023-05-19T07:18:31;4.10;;;1.50;;
21806;SDS011;11065;50.786;7.840;2023-05-19T07:21:00;5.00;;;1.10;;
21806;SDS011;11065;50.786;7.840;2023-05-19T07:23:29;4.30;;;1.03;;
21806;SDS011;11065;50.786;7.840;2023-05-19T07:25:57;4.93;;;1.10;;
21806;SDS011;11065;50.786;7.840;2023-05-19T07:28:27;2.57;;;0.73;;
21806;SDS011;11065;50.786;7.840;2023-05-19T07:30:55;3.50;;;1.00;;
21806;SDS011;11065;50.786;7.840;2023-05-19T07:33:23;3.23;;;1.23;;
21806;SDS011;11065;50.786;7.840;2023-05-19T07:35:52;4.60;;;1.00;;
21806;SDS011;11065;50.786;7.840;2023-05-19T07:38:20;3.30;;;1.10;;
21806;SDS011;11065;50.786;7.840;2023-05-19T07:40:48;3.80;;;0.90;;
21806;SDS011;11065;50.786;7.840;2023-05-19T07:43:16;4.43;;;1.20;;
21806;SDS011;11065;50.786;7.840;2023-05-19T07:45:46;5.17;;;1.40;;
21806;SDS011;11065;50.786;7.840;2023-05-19T07:48:14;4.13;;;1.13;;
21806;SDS011;11065;50.786;7.840;2023-05-19T07:50:44;2.97;;;1.10;;
21806;SDS011;11065;50.786;7.840;2023-05-19T07:53:12;3.70;;;1.07;;
21806;SDS011;11065;50.786;7.840;2023-05-19T07:55:40;4.13;;;1.10;;
21806;SDS011;11065;50.786;7.840;2023-05-19T07:58:08;2.20;;;1.00;;
21806;SDS011;11065;50.786;7.840;2023-05-19T08:00:36;3.10;;;1.20;;
21806;SDS011;11065;50.786;7.840;2023-05-19T08:03:06;3.27;;;1.10;;
21806;SDS011;11065;50.786;7.840;2023-05-19T08:05:34;2.07;;;0.80;;
21806;SDS011;11065;50.786;7.840;2023-05-19T08:08:03;3.90;;;1.40;;
21806;SDS011;11065;50.786;7.840;2023-05-19T08:10:31;3.47;;;1.30;;
21806;SDS011;11065;50.786;7.840;2023-05-19T08:13:00;3.60;;;1.07;;
21806;SDS011;11065;50.786;7.840;2023-05-19T08:15:28;4.27;;;1.03;;
21806;SDS011;11065;50.786;7.840;2023-05-19T08:17:56;3.67;;;1.30;;
21806;SDS011;11065;50.786;7.840;2023-05-19T08:20:25;4.50;;;1.20;;
21806;SDS011;11065;50.786;7.840;2023-05-19T08:22:53;3.90;;;1.27;;
21806;SDS011;11065;50.786;7.840;2023-05-19T08:25:21;4.73;;;1.10;;
21806;SDS011;11065;50.786;7.840;2023-05-19T08:27:49;2.40;;;1.00;;
21806;SDS011;11065;50.786;7.840;2023-05-19T08:30:18;2.20;;;1.03;;
21806;SDS011;11065;50.786;7.840;2023-05-19T08:32:46;5.00;;;1.17;;
21806;SDS011;11065;50.786;7.840;2023-05-19T08:35:14;2.10;;;0.87;;
21806;SDS011;11065;50.786;7.840;2023-05-19T08:37:44;4.40;;;1.37;;
21806;SDS011;11065;50.786;7.840;2023-05-19T08:40:15;3.73;;;1.10;;
21806;SDS011;11065;50.786;7.840;2023-05-19T08:42:44;4.60;;;1.43;;
21806;SDS011;11065;50.786;7.840;2023-05-19T08:45:12;2.13;;;0.90;;
21806;SDS011;11065;50.786;7.840;2023-05-19T08:47:40;2.03;;;0.90;;
21806;SDS011;11065;50.786;7.840;2023-05-19T08:50:10;3.40;;;1.00;;
21806;SDS011;11065;50.786;7.840;2023-05-19T08:52:41;3.53;;;1.10;;
21806;SDS011;11065;50.786;7.840;2023-05-19T08:55:23;3.67;;;1.10;;
21806;SDS011;11065;50.786;7.840;2023-05-19T08:57:59;3.50;;;0.90;;
21806;SDS011;11065;50.786;7.840;2023-05-19T09:00:29;4.00;;;1.00;;
21806;SDS011;11065;50.786;7.840;2023-05-19T09:02:57;3.70;;;1.10;;
21806;SDS011;11065;50.786;7.840;2023-05-19T09:05:31;5.73;;;1.20;;
21806;SDS011;11065;50.786;7.840;2023-05-19T09:08:02;2.73;;;1.00;;
21806;SDS011;11065;50.786;7.840;2023-05-19T09:10:30;2.57;;;1.07;;
21806;SDS011;11065;50.786;7.840;2023-05-19T09:12:58;3.20;;;1.10;;
21806;SDS011;11065;50.786;7.840;2023-05-19T09:15:27;3.70;;;1.50;;
21806;SDS011;11065;50.786;7.840;2023-05-19T09:18:04;3.20;;;1.23;;
21806;SDS011;11065;50.786;7.840;2023-05-19T09:20:38;4.05;;;1.13;;
21806;SDS011;11065;50.786;7.840;2023-05-19T09:23:11;3.67;;;1.38;;
21806;SDS011;11065;50.786;7.840;2023-05-19T09:25:49;4.80;;;1.10;;
21806;SDS011;11065;50.786;7.840;2023-05-19T09:28:22;4.50;;;1.13;;
21806;SDS011;11065;50.786;7.840;2023-05-19T09:31:01;2.50;;;1.00;;
21806;SDS011;11065;50.786;7.840;2023-05-19T09:33:32;3.10;;;1.00;;
21806;SDS011;11065;50.786;7.840;2023-05-19T09:36:01;2.80;;;1.05;;
21806;SDS011;11065;50.786;7.840;2023-05-19T09:38:33;5.78;;;1.00;;
21806;SDS011;11065;50.786;7.840;2023-05-19T09:41:02;5.03;;;1.10;;
21806;SDS011;11065;50.786;7.840;2023-05-19T09:43:31;1.58;;;1.00;;
21806;SDS011;11065;50.786;7.840;2023-05-19T09:46:02;2.90;;;0.93;;
21806;SDS011;11065;50.786;7.840;2023-05-19T09:48:31;4.03;;;1.10;;
21806;SDS011;11065;50.786;7.840;2023-05-19T09:50:59;3.60;;;1.40;;
21806;SDS011;11065;50.786;7.840;2023-05-19T09:53:28;3.42;;;1.05;;
21806;SDS011;11065;50.786;7.840;2023-05-19T09:55:59;3.85;;;1.30;;
21806;SDS011;11065;50.786;7.840;2023-05-19T09:58:30;2.33;;;0.85;;
21806;SDS011;11065;50.786;7.840;2023-05-19T10:01:00;3.65;;;1.23;;
21806;SDS011;11065;50.786;7.840;2023-05-19T10:03:28;3.67;;;1.17;;
21806;SDS011;11065;50.786;7.840;2023-05-19T10:05:58;3.85;;;1.08;;
21806;SDS011;11065;50.786;7.840;2023-05-19T10:08:28;2.35;;;0.95;;
21806;SDS011;11065;50.786;7.840;2023-05-19T10:10:58;3.15;;;1.00;;
21806;SDS011;11065;50.786;7.840;2023-05-19T10:13:27;3.53;;;1.40;;
21806;SDS011;11065;50.786;7.840;2023-05-19T10:15:56;2.88;;;1.15;;
21806;SDS011;11065;50.786;7.840;2023-05-19T10:18:26;2.85;;;1.10;;
21806;SDS011;11065;50.786;7.840;2023-05-19T10:20:55;2.65;;;0.88;;
21806;SDS011;11065;50.786;7.840;2023-05-19T10:23:25;2.67;;;1.00;;
21806;SDS011;11065;50.786;7.840;2023-05-19T10:25:54;1.98;;;0.90;;
21806;SDS011;11065;50.786;7.840;2023-05-19T10:28:29;4.70;;;1.10;;
21806;SDS011;11065;50.786;7.840;2023-05-19T10:31:01;2.28;;;0.88;;
21806;SDS011;11065;50.786;7.840;2023-05-19T10:33:37;2.97;;;0.90;;
21806;SDS011;11065;50.786;7.840;2023-05-19T10:36:22;3.97;;;1.00;;
21806;SDS011;11065;50.786;7.840;2023-05-19T10:39:03;3.13;;;1.30;;
21806;SDS011;11065;50.786;7.840;2023-05-19T10:41:36;1.42;;;0.90;;
21806;SDS011;11065;50.786;7.840;2023-05-19T10:44:13;4.38;;;0.90;;
21806;SDS011;11065;50.786;7.840;2023-05-19T10:46:49;5.28;;;1.02;;
21806;SDS011;11065;50.786;7.840;2023-05-19T10:49:21;1.75;;;0.60;;
21806;SDS011;11065;50.786;7.840;2023-05-19T10:51:50;2.15;;;0.88;;
21806;SDS011;11065;50.786;7.840;2023-05-19T10:54:25;1.92;;;0.77;;
21806;SDS011;11065;50.786;7.840;2023-05-19T10:57:12;4.18;;;1.10;;
21806;SDS011;11065;50.786;7.840;2023-05-19T10:59:43;2.65;;;0.90;;
21806;SDS011;11065;50.786;7.840;2023-05-19T11:05:07;2.03;;;0.85;;
21806;SDS011;11065;50.786;7.840;2023-05-19T11:07:36;2.30;;;1.20;;
21806;SDS011;11065;50.786;7.840;2023-05-19T11:10:08;2.15;;;0.88;;
21806;SDS011;11065;50.786;7.840;2023-05-19T11:12:40;2.42;;;1.00;;
21806;SDS011;11065;50.786;7.840;2023-05-19T11:15:12;2.30;;;0.85;;
21806;SDS011;11065;50.786;7.840;2023-05-19T11:17:41;2.10;;;0.88;;
21806;SDS011;11065;50.786;7.840;2023-05-19T11:20:19;2.78;;;1.25;;
21806;SDS011;11065;50.786;7.840;2023-05-19T11:23:04;2.67;;;0.93;;
21806;SDS011;11065;50.786;7.840;2023-05-19T11:25:43;1.90;;;0.73;;
21806;SDS011;11065;50.786;7.840;2023-05-19T11:28:14;2.42;;;0.80;;
21806;SDS011;11065;50.786;7.840;2023-05-19T11:30:46;2.03;;;0.80;;
21806;SDS011;11065;50.786;7.840;2023-05-19T11:33:16;1.92;;;0.77;;
21806;SDS011;11065;50.786;7.840;2023-05-19T11:35:45;2.97;;;0.90;;
21806;SDS011;11065;50.786;7.840;2023-05-19T11:38:15;3.00;;;1.13;;
21806;SDS011;11065;50.786;7.840;2023-05-19T11:40:45;1.67;;;0.80;;
21806;SDS011;11065;50.786;7.840;2023-05-19T11:43:15;3.08;;;0.90;;
21806;SDS011;11065;50.786;7.840;2023-05-19T11:45:43;3.38;;;1.00;;
21806;SDS011;11065;50.786;7.840;2023-05-19T11:48:13;2.35;;;0.80;;
21806;SDS011;11065;50.786;7.840;2023-05-19T11:50:42;2.47;;;0.95;;
21806;SDS011;11065;50.786;7.840;2023-05-19T11:53:12;2.80;;;0.80;;
21806;SDS011;11065;50.786;7.840;2023-05-19T11:55:40;1.95;;;0.90;;
21806;SDS011;11065;50.786;7.840;2023-05-19T11:58:09;2.10;;;0.70;;
21806;SDS011;11065;50.786;7.840;2023-05-19T12:00:38;2.22;;;0.80;;
21806;SDS011;11065;50.786;7.840;2023-05-19T12:03:07;1.70;;;0.70;;
21806;SDS011;11065;50.786;7.840;2023-05-19T12:05:42;2.47;;;1.05;;
21806;SDS011;11065;50.786;7.840;2023-05-19T12:08:13;1.95;;;0.95;;
21806;SDS011;11065;50.786;7.840;2023-05-19T12:10:42;2.17;;;0.65;;
21806;SDS011;11065;50.786;7.840;2023-05-19T12:13:13;1.80;;;0.82;;
21806;SDS011;11065;50.786;7.840;2023-05-19T12:15:41;2.20;;;1.08;;
21806;SDS011;11065;50.786;7.840;2023-05-19T12:18:09;1.95;;;0.80;;
21806;SDS011;11065;50.786;7.840;2023-05-19T12:20:39;3.92;;;1.23;;
21806;SDS011;11065;50.786;7.840;2023-05-19T12:23:07;2.58;;;0.90;;
21806;SDS011;11065;50.786;7.840;2023-05-19T12:25:35;1.63;;;0.68;;
21806;SDS011;11065;50.786;7.840;2023-05-19T12:28:04;5.80;;;0.70;;
21806;SDS011;11065;50.786;7.840;2023-05-19T12:30:32;2.10;;;0.68;;
21806;SDS011;11065;50.786;7.840;2023-05-19T12:33:01;2.45;;;1.17;;
21806;SDS011;11065;50.786;7.840;2023-05-19T12:35:30;2.10;;;0.70;;
21806;SDS011;11065;50.786;7.840;2023-05-19T12:38:04;1.45;;;0.80;;
21806;SDS011;11065;50.786;7.840;2023-05-19T12:40:33;2.13;;;0.77;;
21806;SDS011;11065;50.786;7.840;2023-05-19T12:43:03;1.77;;;0.80;;
21806;SDS011;11065;50.786;7.840;2023-05-19T12:45:33;2.13;;;0.85;;
21806;SDS011;11065;50.786;7.840;2023-05-19T12:48:03;3.55;;;0.88;;
21806;SDS011;11065;50.786;7.840;2023-05-19T12:50:32;3.30;;;0.90;;
21806;SDS011;11065;50.786;7.840;2023-05-19T12:53:01;1.70;;;0.80;;
21806;SDS011;11065;50.786;7.840;2023-05-19T12:55:30;5.60;;;1.17;;
21806;SDS011;11065;50.786;7.840;2023-05-19T12:58:05;1.70;;;0.90;;
21806;SDS011;11065;50.786;7.840;2023-05-19T13:00:36;1.50;;;0.80;;
21806;SDS011;11065;50.786;7.840;2023-05-19T13:03:12;2.30;;;0.70;;
21806;SDS011;11065;50.786;7.840;2023-05-19T13:05:43;1.45;;;0.80;;
21806;SDS011;11065;50.786;7.840;2023-05-19T13:08:13;2.65;;;0.77;;
21806;SDS011;11065;50.786;7.840;2023-05-19T13:10:43;2.05;;;0.90;;
21806;SDS011;11065;50.786;7.840;2023-05-19T13:13:13;2.60;;;1.10;;
21806;SDS011;11065;50.786;7.840;2023-05-19T13:15:42;2.08;;;0.80;;
21806;SDS011;11065;50.786;7.840;2023-05-19T13:18:14;2.72;;;1.10;;
21806;SDS011;11065;50.786;7.840;2023-05-19T13:20:43;1.75;;;0.75;;
21806;SDS011;11065;50.786;7.840;2023-05-19T13:23:14;1.70;;;0.80;;
21806;SDS011;11065;50.786;7.840;2023-05-19T13:25:44;1.58;;;0.85;;
21806;SDS011;11065;50.786;7.840;2023-05-19T13:28:12;2.95;;;0.80;;
21806;SDS011;11065;50.786;7.840;2023-05-19T13:30:41;1.25;;;0.70;;
21806;SDS011;11065;50.786;7.840;2023-05-19T13:33:10;2.05;;;0.75;;
21806;SDS011;11065;50.786;7.840;2023-05-19T13:35:39;2.55;;;0.90;;
21806;SDS011;11065;50.786;7.840;2023-05-19T13:38:07;2.95;;;0.93;;
21806;SDS011;11065;50.786;7.840;2023-05-19T13:40:36;1.90;;;0.82;;
21806;SDS011;11065;50.786;7.840;2023-05-19T13:43:06;5.13;;;0.93;;
21806;SDS011;11065;50.786;7.840;2023-05-19T13:45:35;3.60;;;0.90;;
21806;SDS011;11065;50.786;7.840;2023-05-19T13:48:03;3.85;;;0.85;;
21806;SDS011;11065;50.786;7.840;2023-05-19T13:50:33;1.80;;;0.90;;
21806;SDS011;11065;50.786;7.840;2023-05-19T13:53:01;2.17;;;0.90;;
21806;SDS011;11065;50.786;7.840;2023-05-19T13:55:30;2.40;;;1.00;;
21806;SDS011;11065;50.786;7.840;2023-05-19T13:57:58;2.90;;;0.95;;
21806;SDS011;11065;50.786;7.840;2023-05-19T14:00:28;2.92;;;1.02;;
21806;SDS011;11065;50.786;7.840;2023-05-19T14:02:57;1.80;;;0.90;;
21806;SDS011;11065;50.786;7.840;2023-05-19T14:05:26;1.92;;;0.88;;
21806;SDS011;11065;50.786;7.840;2023-05-19T14:07:54;2.85;;;0.90;;
21806;SDS011;11065;50.786;7.840;2023-05-19T14:10:23;2.22;;;0.95;;
21806;SDS011;11065;50.786;7.840;2023-05-19T14:12:51;2.38;;;1.02;;
21806;SDS011;11065;50.786;7.840;2023-05-19T14:15:41;2.95;;;0.80;;
21806;SDS011;11065;50.786;7.840;2023-05-19T14:18:10;3.25;;;0.90;;
21806;SDS011;11065;50.786;7.840;2023-05-19T14:20:38;3.20;;;1.00;;
21806;SDS011;11065;50.786;7.840;2023-05-19T14:23:06;2.53;;;0.90;;
21806;SDS011;11065;50.786;7.840;2023-05-19T14:25:35;1.65;;;0.68;;
21806;SDS011;11065;50.786;7.840;2023-05-19T14:28:03;3.00;;;0.88;;
21806;SDS011;11065;50.786;7.840;2023-05-19T14:30:31;2.15;;;0.90;;
21806;SDS011;11065;50.786;7.840;2023-05-19T14:33:01;3.72;;;0.90;;
21806;SDS011;11065;50.786;7.840;2023-05-19T14:35:29;2.60;;;0.77;;
21806;SDS011;11065;50.786;7.840;2023-05-19T14:37:58;3.55;;;0.95;;
21806;SDS011;11065;50.786;7.840;2023-05-19T14:40:25;1.65;;;1.13;;
21806;SDS011;11065;50.786;7.840;2023-05-19T14:42:54;3.15;;;1.20;;
21806;SDS011;11065;50.786;7.840;2023-05-19T14:45:22;2.13;;;0.90;;
21806;SDS011;11065;50.786;7.840;2023-05-19T14:47:50;3.25;;;1.27;;
21806;SDS011;11065;50.786;7.840;2023-05-19T14:50:19;2.25;;;1.30;;
21806;SDS011;11065;50.786;7.840;2023-05-19T14:52:48;2.95;;;1.10;;
21806;SDS011;11065;50.786;7.840;2023-05-19T14:55:16;2.47;;;0.93;;
21806;SDS011;11065;50.786;7.840;2023-05-19T14:57:44;5.85;;;1.30;;
21806;SDS011;11065;50.786;7.840;2023-05-19T15:00:12;4.93;;;1.50;;
21806;SDS011;11065;50.786;7.840;2023-05-19T15:02:41;3.33;;;1.20;;
21806;SDS011;11065;50.786;7.840;2023-05-19T15:05:09;2.90;;;1.02;;
21806;SDS011;11065;50.786;7.840;2023-05-19T15:07:38;2.42;;;1.00;;
21806;SDS011;11065;50.786;7.840;2023-05-19T15:10:07;2.50;;;1.02;;
21806;SDS011;11065;50.786;7.840;2023-05-19T15:12:35;1.60;;;0.88;;
21806;SDS011;11065;50.786;7.840;2023-05-19T15:15:04;3.65;;;1.30;;